Time;durP1;ratioP1;P1;durP2;ratioP2;P2;SDS_P1;SDS_P2;PMS_P1;PMS_P2;Temp;Humidity;BMP_temperature;BMP_pressure;BME280_temperature;BME280_humidity;BME280_pressure;Samples;Min_cycle;Max_cycle;Signal;HPM_P1;HPM_P2
2021/12/14 00:01:26;;;;;;;;;;;12.90;99.90;;;;;;4997254;28;19926;-83
2021/12/14 00:03:54;;;;;;;;;;;12.90;99.90;;;;;;4996648;28;19925;-83
2021/12/14 00:06:21;;;;;;;;;;;14.10;99.90;;;;;;5013800;28;20353;-83
2021/12/14 00:08:56;;;;;;;;;;;15.70;99.90;;;;;;4996693;28;19983;-84
2021/12/14 00:14:15;;;;;;;;;;;12.70;99.90;;;;;;5013605;28;19926;-85
2021/12/14 00:16:42;;;;;;;;;;;12.80;99.90;;;;;;4967826;28;19925;-81
2021/12/14 00:19:09;;;;;;;;;;;14.50;99.90;;;;;;4996501;28;19925;-83
2021/12/14 00:21:35;;;;;;;;;;;12.70;99.90;;;;;;4996660;28;19925;-82
2021/12/14 00:24:07;;;;;;;;;;;12.70;99.90;;;;;;5013843;28;19926;-83
2021/12/14 00:26:37;;;;;;;;;;;12.60;99.90;;;;;;4980896;28;19948;-83
2021/12/14 00:29:04;;;;;;;;;;;12.40;99.90;;;;;;4996228;28;19949;-83
2021/12/14 00:31:29;;;;;;;;;;;12.90;99.90;;;;;;4996981;28;19925;-83
2021/12/14 00:33:59;;;;;;;;;;;12.10;99.90;;;;;;4995322;28;20373;-83
2021/12/14 00:36:24;;;;;;;;;;;14.80;99.90;;;;;;4992454;28;20008;-83
2021/12/14 00:38:56;;;;;;;;;;;11.90;99.90;;;;;;4993974;28;20624;-82
2021/12/14 00:41:23;;;;;;;;;;;12.70;99.90;;;;;;4995043;28;19926;-81
2021/12/14 00:43:49;;;;;;;;;;;12.80;99.90;;;;;;5013465;28;19926;-83
2021/12/14 00:46:14;;;;;;;;;;;13.70;99.90;;;;;;4995032;28;20274;-83
2021/12/14 00:48:40;;;;;;;;;;;11.60;99.90;;;;;;4994404;28;19969;-83
2021/12/14 00:51:06;;;;;;;;;;;11.80;99.90;;;;;;4993139;28;19925;-82
2021/12/14 00:53:32;;;;;;;;;;;11.40;99.90;;;;;;4995138;28;19977;-83
2021/12/14 00:55:58;;;;;;;;;;;11.30;99.90;;;;;;4994672;28;19929;-83
2021/12/14 00:58:25;;;;;;;;;;;12.80;99.90;;;;;;4996449;28;20354;-81
2021/12/14 01:01:10;;;;;;;;;;;11.10;99.90;;;;;;5011037;28;19925;-83
2021/12/14 01:03:37;;;;;;;;;;;11.10;99.90;;;;;;4995764;28;19929;-82
2021/12/14 01:06:04;;;;;;;;;;;11.00;99.90;;;;;;4995223;28;19930;-82
2021/12/14 01:08:34;;;;;;;;;;;11.50;99.90;;;;;;4994863;28;20299;-83
2021/12/14 01:11:07;;;;;;;;;;;12.60;99.90;;;;;;4995498;28;19979;-82
2021/12/14 01:13:37;;;;;;;;;;;10.70;99.90;;;;;;4995856;28;19925;-82
2021/12/14 01:16:16;;;;;;;;;;;11.10;99.90;;;;;;4994277;28;19925;-83
2021/12/14 01:18:48;;;;;;;;;;;10.50;99.90;;;;;;5011940;28;19926;-84
2021/12/14 01:24:06;;;;;;;;;;;10.40;99.90;;;;;;4994085;28;20116;-81
2021/12/14 01:26:34;;;;;;;;;;;12.00;99.90;;;;;;4994677;28;19933;-82
2021/12/14 01:29:01;;;;;;;;;;;12.20;99.90;;;;;;4993825;28;20020;-82
2021/12/14 01:31:33;;;;;;;;;;;10.20;99.90;;;;;;4993936;28;19930;-82
2021/12/14 01:34:01;;;;;;;;;;;10.10;99.90;;;;;;4994090;28;19926;-82
2021/12/14 01:36:37;;;;;;;;;;;11.30;99.90;;;;;;5011223;28;20079;-82
2021/12/14 01:42:06;;;;;;;;;;;9.80;99.90;;;;;;4993485;28;19937;-82
2021/12/14 01:44:34;;;;;;;;;;;10.10;99.90;;;;;;4993295;28;19926;-84
2021/12/14 01:47:03;;;;;;;;;;;12.80;99.90;;;;;;4992282;28;20355;-82
2021/12/14 01:49:29;;;;;;;;;;;9.90;99.90;;;;;;4993890;28;19937;-81
2021/12/14 01:51:58;;;;;;;;;;;9.70;99.90;;;;;;5009845;28;20268;-81
2021/12/14 01:54:27;;;;;;;;;;;10.70;99.90;;;;;;4993021;28;20390;-82
2021/12/14 01:56:53;;;;;;;;;;;9.70;99.90;;;;;;4993654;28;20290;-82
2021/12/14 01:59:34;;;;;;;;;;;9.60;99.90;;;;;;5012182;28;19925;-82
2021/12/14 02:04:46;;;;;;;;;;;10.10;99.90;;;;;;4994608;28;19932;-84
2021/12/14 02:07:14;;;;;;;;;;;9.40;99.90;;;;;;4977955;28;19928;-80
2021/12/14 02:09:40;;;;;;;;;;;11.40;99.90;;;;;;4978204;28;19932;-80
2021/12/14 02:12:17;;;;;;;;;;;10.40;99.90;;;;;;4993937;28;20024;-80
2021/12/14 02:14:44;;;;;;;;;;;9.30;99.90;;;;;;4993093;28;20294;-82
2021/12/14 02:17:13;;;;;;;;;;;10.10;99.90;;;;;;5010891;28;20040;-81
2021/12/14 02:19:39;;;;;;;;;;;9.40;99.90;;;;;;4978442;28;19976;-80
2021/12/14 02:22:06;;;;;;;;;;;9.20;99.90;;;;;;5010419;28;19925;-81
2021/12/14 02:24:33;;;;;;;;;;;10.10;99.90;;;;;;4994478;28;20305;-80
2021/12/14 02:26:59;;;;;;;;;;;10.20;99.90;;;;;;4992199;28;19933;-82
2021/12/14 02:29:24;;;;;;;;;;;9.20;99.90;;;;;;4993972;28;19930;-81
2021/12/14 02:31:52;;;;;;;;;;;9.90;99.90;;;;;;4994417;28;20293;-82
2021/12/14 02:34:18;;;;;;;;;;;9.20;99.90;;;;;;5010989;28;19932;-81
2021/12/14 02:36:45;;;;;;;;;;;9.20;99.90;;;;;;4993016;28;19926;-81
2021/12/14 02:39:24;;;;;;;;;;;9.20;99.90;;;;;;4993466;28;19949;-81
2021/12/14 02:41:52;;;;;;;;;;;10.90;99.90;;;;;;4993873;28;19995;-81
2021/12/14 02:44:18;;;;;;;;;;;9.50;99.90;;;;;;4993634;28;19925;-81
2021/12/14 02:46:47;;;;;;;;;;;9.10;99.90;;;;;;4994440;28;20377;-81
2021/12/14 02:49:15;;;;;;;;;;;9.20;99.90;;;;;;4993632;28;20012;-83
2021/12/14 02:51:43;;;;;;;;;;;10.30;99.90;;;;;;4993894;28;19975;-81
2021/12/14 02:54:11;;;;;;;;;;;9.90;99.90;;;;;;5010624;28;19925;-80
2021/12/14 02:56:37;;;;;;;;;;;10.10;99.90;;;;;;4992766;28;19988;-80
2021/12/14 02:59:08;;;;;;;;;;;9.30;99.90;;;;;;4993101;28;20437;-83
2021/12/14 03:01:34;;;;;;;;;;;9.00;99.90;;;;;;5011265;28;20382;-80
2021/12/14 03:04:01;;;;;;;;;;;10.50;99.90;;;;;;4993479;28;19937;-83
2021/12/14 03:06:27;;;;;;;;;;;9.70;99.90;;;;;;4993173;28;20402;-81
2021/12/14 03:09:08;;;;;;;;;;;8.90;99.90;;;;;;4993089;28;19933;-80
2021/12/14 03:11:35;;;;;;;;;;;10.90;99.90;;;;;;5011319;28;20063;-79
2021/12/14 03:14:01;;;;;;;;;;;8.90;99.90;;;;;;5010956;28;19933;-81
2021/12/14 03:16:28;;;;;;;;;;;10.10;99.90;;;;;;4997694;28;19926;-80
2021/12/14 03:18:55;;;;;;;;;;;8.90;99.90;;;;;;4997121;28;19926;-80
2021/12/14 03:21:22;;;;;;;;;;;8.70;99.90;;;;;;4996930;28;19931;-80
2021/12/14 03:23:53;;;;;;;;;;;8.70;99.90;;;;;;4996306;28;20536;-81
2021/12/14 03:26:20;;;;;;;;;;;8.50;99.90;;;;;;4996946;28;19926;-81
2021/12/14 03:28:48;;;;;;;;;;;9.50;99.90;;;;;;4996658;28;19981;-80
2021/12/14 03:31:13;;;;;;;;;;;10.60;99.90;;;;;;5014416;28;19973;-81
2021/12/14 03:33:41;;;;;;;;;;;8.80;99.90;;;;;;4997061;28;20076;-81
2021/12/14 03:36:09;;;;;;;;;;;10.30;99.90;;;;;;4996346;28;19926;-80
2021/12/14 03:38:43;;;;;;;;;;;8.90;99.90;;;;;;4996859;28;20465;-81
2021/12/14 03:41:15;;;;;;;;;;;8.80;99.90;;;;;;4996802;28;20412;-80
2021/12/14 03:43:42;;;;;;;;;;;8.90;99.90;;;;;;4980690;28;20024;-81
2021/12/14 03:46:08;;;;;;;;;;;9.90;99.90;;;;;;4995136;28;20310;-80
2021/12/14 03:48:34;;;;;;;;;;;10.80;99.90;;;;;;4994981;28;19933;-80
2021/12/14 03:51:01;;;;;;;;;;;10.30;99.90;;;;;;4994799;28;19948;-82
2021/12/14 03:53:26;;;;;;;;;;;9.70;99.90;;;;;;4994611;28;19989;-81
2021/12/14 03:55:54;;;;;;;;;;;11.50;99.90;;;;;;4996145;28;20323;-80
2021/12/14 03:58:21;;;;;;;;;;;9.40;99.90;;;;;;4995209;28;19994;-79
2021/12/14 04:00:53;;;;;;;;;;;11.20;99.90;;;;;;4995328;28;19929;-81
2021/12/14 04:03:19;;;;;;;;;;;8.90;99.90;;;;;;5012670;28;20420;-80
2021/12/14 04:05:46;;;;;;;;;;;9.50;99.90;;;;;;5012857;28;19980;-79
2021/12/14 04:08:12;;;;;;;;;;;8.70;99.90;;;;;;4994752;28;20394;-80
2021/12/14 04:10:38;;;;;;;;;;;12.30;99.90;;;;;;5012443;28;19960;-80
2021/12/14 04:13:05;;;;;;;;;;;10.50;99.90;;;;;;4994899;28;19926;-81
2021/12/14 04:15:31;;;;;;;;;;;9.20;99.90;;;;;;4993983;28;20010;-79
2021/12/14 04:17:57;;;;;;;;;;;9.10;99.90;;;;;;4995516;28;20362;-79
2021/12/14 04:20:29;;;;;;;;;;;10.20;99.90;;;;;;4994082;28;19926;-79
2021/12/14 04:22:55;;;;;;;;;;;8.80;99.90;;;;;;4994991;28;20046;-80
2021/12/14 04:25:23;;;;;;;;;;;8.90;99.90;;;;;;4993469;28;19925;-78
2021/12/14 04:27:50;;;;;;;;;;;12.00;99.90;;;;;;4978931;28;19937;-79
2021/12/14 04:30:17;;;;;;;;;;;10.40;99.90;;;;;;5010668;28;19933;-79
2021/12/14 04:32:51;;;;;;;;;;;8.80;99.90;;;;;;5011527;28;20381;-82
2021/12/14 04:35:18;;;;;;;;;;;8.90;99.90;;;;;;4994038;28;19940;-80
2021/12/14 04:37:47;;;;;;;;;;;9.70;99.90;;;;;;4994439;28;19951;-80
2021/12/14 04:51:54;;;;;;;;;;;10.50;99.90;;;;;;4977761;28;19925;-80
2021/12/14 04:54:18;;;;;;;;;;;8.80;99.90;;;;;;4980828;28;20001;-80
2021/12/14 04:56:45;;;;;;;;;;;8.70;99.90;;;;;;4979103;28;20157;-79
2021/12/14 04:59:13;;;;;;;;;;;8.70;99.90;;;;;;4995238;28;19925;-85
2021/12/14 05:01:40;;;;;;;;;;;10.50;61.70;;;;;;4993513;28;20281;-82
2021/12/14 05:04:08;;;;;;;;;;;11.20;75.00;;;;;;4993443;28;20474;-80
2021/12/14 05:06:46;;;;;;;;;;;8.90;99.90;;;;;;4992190;28;20009;-79
2021/12/14 05:09:21;;;;;;;;;;;8.90;1.00;;;;;;4993991;28;19948;-85
2021/12/14 05:11:47;;;;;;;;;;;8.90;1.00;;;;;;4994440;28;20024;-80
2021/12/14 05:14:13;;;;;;;;;;;8.70;1.00;;;;;;4978474;28;19968;-84
2021/12/14 05:16:39;;;;;;;;;;;9.10;1.00;;;;;;4995483;28;20354;-80
2021/12/14 05:19:06;;;;;;;;;;;8.70;99.90;;;;;;4995836;28;19979;-80
2021/12/14 05:21:37;;;;;;;;;;;8.70;99.90;;;;;;4994533;28;20450;-81
2021/12/14 05:24:04;;;;;;;;;;;10.20;99.90;;;;;;4995575;28;19926;-81
2021/12/14 05:26:30;;;;;;;;;;;8.60;99.90;;;;;;5012188;28;20314;-80
2021/12/14 05:28:56;;;;;;;;;;;10.70;1.00;;;;;;5011435;28;20016;-79
2021/12/14 05:31:21;;;;;;;;;;;9.60;99.90;;;;;;4994495;28;20016;-79
2021/12/14 05:33:47;;;;;;;;;;;9.20;99.90;;;;;;4994835;28;19931;-80
2021/12/14 05:36:15;;;;;;;;;;;10.20;1.00;;;;;;4994571;28;19932;-79
2021/12/14 05:44:04;;;;;;;;;;;10.40;75.20;;;;;;4964793;28;19937;-78
2021/12/14 05:46:29;;;;;;;;;;;8.50;99.90;;;;;;4994741;28;20406;-79
2021/12/14 05:49:09;;;;;;;;;;;8.90;99.90;;;;;;4978768;28;19926;-79
2021/12/14 05:51:35;;;;;;;;;;;8.50;99.90;;;;;;5011631;28;20012;-80
2021/12/14 05:54:00;;;;;;;;;;;9.70;99.90;;;;;;4995352;28;20009;-80
2021/12/14 05:56:27;;;;;;;;;;;8.50;99.90;;;;;;4994531;28;19929;-78
2021/12/14 05:58:54;;;;;;;;;;;8.70;99.90;;;;;;5012467;28;19945;-81
2021/12/14 06:01:22;;;;;;;;;;;8.50;99.90;;;;;;4994204;28;19952;-85
2021/12/14 06:03:57;;;;;;;;;;;8.50;99.90;;;;;;4978609;28;19948;-79
2021/12/14 06:06:31;;;;;;;;;;;8.50;99.90;;;;;;4994006;28;19929;-81
2021/12/14 06:09:06;;;;;;;;;;;8.50;99.90;;;;;;4978539;28;19945;-80
2021/12/14 06:11:32;;;;;;;;;;;8.50;99.90;;;;;;5011755;28;19926;-81
2021/12/14 06:13:58;;;;;;;;;;;8.50;99.90;;;;;;4994993;28;19936;-78
2021/12/14 06:16:28;;;;;;;;;;;8.50;99.90;;;;;;5009154;28;20350;-81
2021/12/14 06:18:54;;;;;;;;;;;10.40;99.90;;;;;;4995014;28;19922;-80
2021/12/14 06:21:30;;;;;;;;;;;11.80;99.90;;;;;;5011481;28;20353;-85
2021/12/14 06:24:00;;;;;;;;;;;8.50;99.90;;;;;;4994651;28;19929;-80
2021/12/14 06:26:33;;;;;;;;;;;8.60;99.90;;;;;;4994211;28;20024;-81
2021/12/14 06:29:06;;;;;;;;;;;8.70;99.90;;;;;;4994783;28;19995;-80
2021/12/14 06:31:31;;;;;;;;;;;8.70;99.90;;;;;;4994458;28;19960;-81
2021/12/14 06:34:09;;;;;;;;;;;10.00;99.90;;;;;;4995162;28;19941;-80
2021/12/14 06:37:03;;;;;;;;;;;8.90;99.90;;;;;;4993620;28;20384;-80
2021/12/14 06:39:30;;;;;;;;;;;8.70;99.90;;;;;;4976089;28;19921;-80
2021/12/14 06:42:08;;;;;;;;;;;11.50;99.90;;;;;;5012109;28;20330;-81
2021/12/14 06:44:33;;;;;;;;;;;8.90;99.90;;;;;;4994501;28;20381;-81
2021/12/14 06:46:59;;;;;;;;;;;8.80;99.90;;;;;;5012159;28;19922;-80
2021/12/14 06:49:25;;;;;;;;;;;8.90;99.90;;;;;;5011268;28;20333;-80
2021/12/14 06:51:52;;;;;;;;;;;9.60;99.90;;;;;;4993823;28;20029;-82
2021/12/14 06:54:19;;;;;;;;;;;10.00;99.90;;;;;;4978384;28;19925;-80
2021/12/14 06:56:49;;;;;;;;;;;9.70;99.90;;;;;;4993858;28;20489;-81
2021/12/14 06:59:15;;;;;;;;;;;9.00;99.90;;;;;;5012103;28;20075;-81
2021/12/14 07:01:42;;;;;;;;;;;10.10;99.90;;;;;;4994338;28;20283;-81
2021/12/14 07:04:10;;;;;;;;;;;9.10;99.90;;;;;;4994624;28;20020;-81
2021/12/14 07:06:37;;;;;;;;;;;10.30;99.90;;;;;;4993952;28;19944;-79
2021/12/14 07:09:11;;;;;;;;;;;10.20;99.90;;;;;;4978285;28;19972;-80
2021/12/14 07:11:40;;;;;;;;;;;9.20;99.90;;;;;;5011643;28;19972;-79
2021/12/14 07:14:14;;;;;;;;;;;9.30;99.90;;;;;;4994127;28;20016;-81
2021/12/14 07:16:45;;;;;;;;;;;9.80;99.90;;;;;;4993902;28;20370;-82
2021/12/14 07:19:11;;;;;;;;;;;9.50;99.90;;;;;;5012001;28;19973;-81
2021/12/14 07:21:48;;;;;;;;;;;9.40;99.90;;;;;;4994032;28;19933;-81
2021/12/14 07:24:22;;;;;;;;;;;9.30;99.90;;;;;;4994315;28;19933;-81
2021/12/14 07:26:49;;;;;;;;;;;9.40;99.90;;;;;;4994174;28;20016;-82
2021/12/14 07:29:21;;;;;;;;;;;10.00;99.90;;;;;;4994112;28;19925;-82
2021/12/14 07:31:47;;;;;;;;;;;9.40;99.90;;;;;;4994012;28;19926;-81
2021/12/14 07:34:12;;;;;;;;;;;12.20;99.90;;;;;;4994503;28;19972;-81
2021/12/14 07:36:39;;;;;;;;;;;11.60;99.90;;;;;;4993081;28;19999;-81
2021/12/14 07:39:12;;;;;;;;;;;9.50;99.90;;;;;;4994245;28;19937;-81
2021/12/14 07:41:42;;;;;;;;;;;9.50;99.90;;;;;;4993878;28;19929;-82
2021/12/14 07:44:13;;;;;;;;;;;9.60;99.90;;;;;;4994126;28;20274;-82
2021/12/14 07:46:48;;;;;;;;;;;9.60;99.90;;;;;;4993679;28;19925;-82
2021/12/14 07:49:29;;;;;;;;;;;9.70;99.90;;;;;;4994095;28;19926;-82
2021/12/14 07:52:00;;;;;;;;;;;9.70;99.90;;;;;;4993766;28;19926;-82
2021/12/14 07:54:28;;;;;;;;;;;9.70;99.90;;;;;;4994258;28;19930;-82
2021/12/14 07:56:59;;;;;;;;;;;9.80;99.90;;;;;;4993807;28;19925;-82
2021/12/14 07:59:29;;;;;;;;;;;9.80;99.90;;;;;;4993922;28;20322;-82
2021/12/14 08:02:07;;;;;;;;;;;9.90;99.90;;;;;;4997537;28;19925;-82
2021/12/14 08:04:33;;;;;;;;;;;9.90;99.90;;;;;;4997439;28;19926;-81
2021/12/14 08:06:59;;;;;;;;;;;10.30;99.90;;;;;;5014610;28;19933;-81
2021/12/14 08:09:53;;;;;;;;;;;11.40;99.90;;;;;;4997612;28;19925;-81
2021/12/14 08:12:36;;;;;;;;;;;9.90;99.90;;;;;;4993688;28;19926;-81
2021/12/14 08:15:14;;;;;;;;;;;10.00;99.90;;;;;;4997160;28;19928;-81
2021/12/14 08:17:40;;;;;;;;;;;9.80;99.90;;;;;;4996568;28;19922;-81
2021/12/14 08:20:08;;;;;;;;;;;12.60;99.90;;;;;;5014607;28;19936;-81
2021/12/14 08:22:35;;;;;;;;;;;10.10;99.90;;;;;;4996975;28;19932;-81
2021/12/14 08:25:01;;;;;;;;;;;10.10;99.90;;;;;;4997362;28;20015;-82
2021/12/14 08:27:28;;;;;;;;;;;12.30;99.90;;;;;;5014688;28;20075;-81
2021/12/14 08:29:55;;;;;;;;;;;10.80;99.90;;;;;;5014305;28;19932;-82
2021/12/14 08:32:23;;;;;;;;;;;10.80;99.90;;;;;;4997313;28;20031;-81
2021/12/14 08:34:50;;;;;;;;;;;10.20;99.90;;;;;;4996422;28;20023;-83
2021/12/14 08:37:21;;;;;;;;;;;10.20;99.90;;;;;;4996665;28;19930;-82
2021/12/14 08:39:48;;;;;;;;;;;10.20;99.90;;;;;;4996709;28;19929;-82
2021/12/14 08:42:31;;;;;;;;;;;11.10;99.90;;;;;;4997030;28;19988;-81
2021/12/14 08:44:57;;;;;;;;;;;10.30;99.90;;;;;;4996359;28;19997;-80
2021/12/14 08:47:32;;;;;;;;;;;11.70;99.90;;;;;;4996902;28;19948;-82
2021/12/14 08:50:00;;;;;;;;;;;10.30;99.90;;;;;;4995892;28;19929;-81
2021/12/14 08:52:26;;;;;;;;;;;10.30;99.90;;;;;;4996704;28;20008;-81
2021/12/14 08:54:52;;;;;;;;;;;12.20;99.90;;;;;;5013786;28;20033;-81
2021/12/14 08:57:20;;;;;;;;;;;11.50;99.90;;;;;;4996885;28;19980;-81
2021/12/14 08:59:48;;;;;;;;;;;10.40;99.90;;;;;;4996286;28;20400;-82
2021/12/14 09:02:15;;;;;;;;;;;12.30;99.90;;;;;;4996467;28;20339;-81
2021/12/14 09:04:52;;;;;;;;;;;12.00;99.90;;;;;;4996040;28;19976;-81
2021/12/14 09:07:19;;;;;;;;;;;10.30;99.90;;;;;;4996550;28;19952;-81
2021/12/14 09:09:45;;;;;;;;;;;10.30;99.90;;;;;;4979720;28;20078;-81
2021/12/14 09:12:13;;;;;;;;;;;10.20;99.90;;;;;;5013245;28;19981;-81
2021/12/14 09:14:40;;;;;;;;;;;10.20;99.90;;;;;;4996008;28;19925;-82
2021/12/14 09:17:08;;;;;;;;;;;10.50;99.90;;;;;;4996400;28;19988;-81
2021/12/14 09:19:36;;;;;;;;;;;10.20;99.90;;;;;;4980073;28;19925;-81
2021/12/14 09:22:05;;;;;;;;;;;11.00;99.90;;;;;;4995689;28;20020;-81
2021/12/14 09:24:31;;;;;;;;;;;10.20;99.90;;;;;;4996200;28;20386;-80
2021/12/14 09:26:59;;;;;;;;;;;10.20;99.90;;;;;;5013150;28;20015;-80
2021/12/14 09:29:26;;;;;;;;;;;10.10;99.90;;;;;;4996133;28;19980;-81
2021/12/14 09:31:52;;;;;;;;;;;11.50;99.90;;;;;;4979205;28;20351;-81
2021/12/14 09:34:20;;;;;;;;;;;10.10;99.90;;;;;;4995973;28;19926;-81
2021/12/14 09:36:50;;;;;;;;;;;10.10;99.90;;;;;;4994751;28;19930;-82
2021/12/14 09:39:21;;;;;;;;;;;9.90;99.90;;;;;;4995993;28;19926;-81
2021/12/14 09:41:53;;;;;;;;;;;10.20;99.90;;;;;;4995375;28;19925;-82
2021/12/14 09:44:20;;;;;;;;;;;10.50;99.90;;;;;;4995840;28;20063;-82
2021/12/14 09:46:46;;;;;;;;;;;10.10;99.90;;;;;;4995273;28;19926;-81
2021/12/14 09:49:12;;;;;;;;;;;10.50;99.90;;;;;;4995386;28;20452;-82
2021/12/14 09:51:41;;;;;;;;;;;12.30;99.90;;;;;;4995415;28;19925;-82
2021/12/14 09:54:09;;;;;;;;;;;10.10;99.90;;;;;;4995545;28;19929;-82
2021/12/14 09:56:40;;;;;;;;;;;11.90;99.90;;;;;;5012733;28;19925;-82
2021/12/14 09:59:06;;;;;;;;;;;10.10;99.90;;;;;;4995341;28;19932;-83
2021/12/14 10:01:34;;;;;;;;;;;10.20;99.90;;;;;;5012866;28;19926;-83
2021/12/14 10:04:04;;;;;;;;;;;11.00;99.90;;;;;;4994955;28;19925;-82
2021/12/14 10:06:31;;;;;;;;;;;10.20;99.90;;;;;;4994748;28;19925;-81
2021/12/14 10:09:02;;;;;;;;;;;10.30;99.90;;;;;;4994611;28;19925;-83
2021/12/14 10:11:48;;;;;;;;;;;11.80;99.90;;;;;;4995426;28;19925;-82
2021/12/14 10:14:15;;;;;;;;;;;12.70;99.90;;;;;;4995505;28;20020;-83
2021/12/14 10:16:41;;;;;;;;;;;11.50;99.90;;;;;;4994232;28;19933;-83
2021/12/14 10:19:10;;;;;;;;;;;10.30;99.90;;;;;;4994565;28;19925;-83
2021/12/14 10:21:37;;;;;;;;;;;10.40;99.90;;;;;;4994253;28;19926;-83
2021/12/14 10:24:05;;;;;;;;;;;11.50;99.90;;;;;;4993828;28;20378;-83
2021/12/14 10:26:32;;;;;;;;;;;10.40;99.90;;;;;;5012043;28;19925;-82
2021/12/14 10:29:00;;;;;;;;;;;10.50;99.90;;;;;;4994123;28;20293;-82
2021/12/14 10:31:31;;;;;;;;;;;11.20;99.90;;;;;;5012050;28;19937;-83
2021/12/14 10:33:58;;;;;;;;;;;10.60;99.90;;;;;;4994755;28;19925;-82
2021/12/14 10:36:31;;;;;;;;;;;14.40;99.90;;;;;;5010460;28;19925;-82
2021/12/14 10:42:39;;;;;;;;;;;10.50;99.90;;;;;;4978558;28;20060;-83
2021/12/14 10:44:37;;;;;;;;;;;11.70;99.90;;;;;;4995075;28;19932;-83
2021/12/14 10:47:03;;;;;;;;;;;10.50;99.90;;;;;;4994135;28;19948;-83
2021/12/14 10:49:28;;;;;;;;;;;10.50;99.90;;;;;;5011037;28;19925;-82
2021/12/14 10:51:57;;;;;;;;;;;11.00;99.90;;;;;;4994041;28;20008;-83
2021/12/14 10:54:22;;;;;;;;;;;12.10;99.90;;;;;;5012216;28;19926;-83
2021/12/14 10:56:51;;;;;;;;;;;10.70;99.90;;;;;;4994205;28;19926;-84
2021/12/14 10:59:18;;;;;;;;;;;12.50;99.90;;;;;;4978629;28;19999;-83
2021/12/14 11:01:49;;;;;;;;;;;10.90;99.90;;;;;;4994443;28;19933;-82
2021/12/14 11:04:17;;;;;;;;;;;12.90;99.90;;;;;;5011720;28;20346;-83
2021/12/14 11:06:44;;;;;;;;;;;11.80;99.90;;;;;;5011540;28;19925;-82
2021/12/14 11:11:41;;;;;;;;;;;10.80;99.90;;;;;;5011763;28;19925;-82
2021/12/14 11:14:08;;;;;;;;;;;11.90;99.90;;;;;;5011626;28;19930;-83
2021/12/14 11:19:35;;;;;;;;;;;10.80;99.90;;;;;;4994405;28;20332;-83
2021/12/14 11:22:21;;;;;;;;;;;10.90;99.90;;;;;;4993496;28;19926;-82
2021/12/14 11:24:49;;;;;;;;;;;10.80;99.90;;;;;;4977774;28;20244;-83
2021/12/14 11:27:20;;;;;;;;;;;10.50;99.90;;;;;;4994372;28;19925;-83
2021/12/14 11:29:50;;;;;;;;;;;13.00;99.90;;;;;;5011474;28;20489;-83
2021/12/14 11:32:18;;;;;;;;;;;12.70;99.90;;;;;;4994352;28;19984;-81
2021/12/14 11:34:45;;;;;;;;;;;11.00;99.90;;;;;;4994425;28;19933;-82
2021/12/14 11:37:15;;;;;;;;;;;10.90;99.90;;;;;;4997182;28;20044;-82
2021/12/14 11:39:46;;;;;;;;;;;13.20;99.90;;;;;;4998198;28;19925;-83
2021/12/14 11:42:19;;;;;;;;;;;11.00;99.90;;;;;;5015388;28;19948;-82
2021/12/14 11:44:54;;;;;;;;;;;13.10;99.90;;;;;;5015724;28;19933;-84
2021/12/14 11:49:50;;;;;;;;;;;12.70;99.90;;;;;;4997630;28;20283;-83
2021/12/14 11:52:32;;;;;;;;;;;11.10;99.90;;;;;;4997998;28;20370;-82
2021/12/14 11:54:57;;;;;;;;;;;11.00;99.90;;;;;;4997635;28;19937;-82
2021/12/14 11:57:28;;;;;;;;;;;12.60;99.90;;;;;;4997695;28;19926;-83
2021/12/14 12:00:08;;;;;;;;;;;11.40;99.90;;;;;;4997593;28;20020;-82
2021/12/14 12:02:34;;;;;;;;;;;11.00;99.90;;;;;;4997788;28;19925;-83
2021/12/14 12:05:12;;;;;;;;;;;12.20;99.90;;;;;;5014089;28;19933;-83
2021/12/14 12:10:22;;;;;;;;;;;12.00;99.90;;;;;;4997152;28;19999;-82
2021/12/14 12:12:48;;;;;;;;;;;11.20;99.90;;;;;;5014927;28;20342;-83
2021/12/14 12:15:19;;;;;;;;;;;11.10;99.90;;;;;;4996593;28;19928;-83
2021/12/14 12:17:46;;;;;;;;;;;11.10;99.90;;;;;;4996661;28;19928;-84
2021/12/14 12:20:15;;;;;;;;;;;11.20;99.90;;;;;;4996833;28;20035;-82
2021/12/14 12:22:45;;;;;;;;;;;11.10;99.90;;;;;;5014667;28;19922;-83
2021/12/14 12:25:12;;;;;;;;;;;11.70;99.90;;;;;;5014401;28;20382;-83
2021/12/14 12:27:41;;;;;;;;;;;11.30;99.90;;;;;;4981200;28;19922;-83
2021/12/14 12:30:07;;;;;;;;;;;11.30;99.90;;;;;;5014501;28;19929;-84
2021/12/14 12:32:32;;;;;;;;;;;11.20;99.90;;;;;;4997138;28;19922;-83
2021/12/14 12:34:58;;;;;;;;;;;13.30;99.90;;;;;;4996806;28;19979;-83
2021/12/14 12:37:41;;;;;;;;;;;11.70;99.90;;;;;;5013264;28;19921;-84
2021/12/14 12:40:12;;;;;;;;;;;11.30;99.90;;;;;;4980384;28;19980;-84
2021/12/14 12:42:39;;;;;;;;;;;11.30;99.90;;;;;;5014608;28;20049;-83
2021/12/14 12:45:06;;;;;;;;;;;11.30;99.90;;;;;;5014053;28;19932;-83
2021/12/14 12:47:33;;;;;;;;;;;11.50;99.90;;;;;;4995950;28;19925;-83
2021/12/14 12:49:59;;;;;;;;;;;11.40;99.90;;;;;;4996325;28;19933;-82
2021/12/14 12:52:30;;;;;;;;;;;11.50;99.90;;;;;;4996763;28;19922;-83
2021/12/14 12:54:58;;;;;;;;;;;11.40;99.90;;;;;;4996757;28;19922;-84
2021/12/14 12:57:40;;;;;;;;;;;11.30;99.90;;;;;;5012017;28;19989;-81
2021/12/14 13:00:28;;;;;;;;;;;11.50;99.90;;;;;;4996033;28;20408;-82
2021/12/14 13:02:57;;;;;;;;;;;11.50;99.90;;;;;;5014146;28;20311;-81
2021/12/14 13:05:22;;;;;;;;;;;11.50;99.90;;;;;;5012400;28;20235;-82
2021/12/14 13:08:17;;;;;;;;;;;11.50;99.90;;;;;;4996186;28;19926;-81
2021/12/14 13:10:55;;;;;;;;;;;11.60;99.90;;;;;;4942942;28;19975;-81
2021/12/14 13:13:24;;;;;;;;;;;11.60;99.90;;;;;;4995866;28;20236;-81
2021/12/14 13:16:09;;;;;;;;;;;11.50;99.90;;;;;;4996061;28;20012;-81
2021/12/14 13:18:40;;;;;;;;;;;11.60;99.90;;;;;;5012806;28;20017;-81
2021/12/14 13:21:08;;;;;;;;;;;11.60;99.90;;;;;;5013119;28;19922;-82
2021/12/14 13:23:39;;;;;;;;;;;11.70;99.90;;;;;;5013740;28;19925;-82
2021/12/14 13:26:24;;;;;;;;;;;11.60;99.90;;;;;;4995394;28;19922;-82
2021/12/14 13:28:51;;;;;;;;;;;11.80;99.90;;;;;;4995012;28;19925;-82
2021/12/14 13:31:43;;;;;;;;;;;11.60;99.90;;;;;;4995554;28;19972;-82
2021/12/14 13:34:14;;;;;;;;;;;11.70;99.90;;;;;;4992809;28;19925;-81
2021/12/14 13:36:41;;;;;;;;;;;12.40;99.90;;;;;;5012771;28;19955;-82
2021/12/14 13:39:08;;;;;;;;;;;11.60;99.90;;;;;;4995823;28;19925;-82
2021/12/14 13:41:52;;;;;;;;;;;11.70;99.90;;;;;;5013380;28;19979;-82
2021/12/14 13:44:18;;;;;;;;;;;11.60;99.90;;;;;;4995280;28;20318;-82
2021/12/14 13:46:44;;;;;;;;;;;13.60;99.90;;;;;;5013291;28;19972;-82
2021/12/14 13:49:11;;;;;;;;;;;13.10;99.90;;;;;;4994857;28;19921;-82
2021/12/14 13:51:36;;;;;;;;;;;13.40;99.90;;;;;;4995447;28;20316;-82
2021/12/14 13:54:03;;;;;;;;;;;11.60;99.90;;;;;;4995043;28;20016;-83
2021/12/14 13:56:32;;;;;;;;;;;12.20;99.90;;;;;;4995065;28;19988;-82
2021/12/14 13:58:59;;;;;;;;;;;12.30;99.90;;;;;;4994890;28;19936;-82
2021/12/14 14:01:44;;;;;;;;;;;11.70;99.90;;;;;;5012254;28;20016;-82
2021/12/14 14:04:12;;;;;;;;;;;11.70;99.90;;;;;;4995257;28;20016;-82
2021/12/14 14:06:38;;;;;;;;;;;14.00;99.90;;;;;;5011954;28;19983;-82
2021/12/14 14:09:09;;;;;;;;;;;11.70;99.90;;;;;;4994657;28;19980;-84
2021/12/14 14:11:36;;;;;;;;;;;11.70;99.90;;;;;;5012449;28;19932;-83
2021/12/14 14:14:04;;;;;;;;;;;13.40;99.90;;;;;;4994932;28;19925;-83
2021/12/14 14:16:42;;;;;;;;;;;12.50;99.90;;;;;;4994608;28;19983;-82
2021/12/14 14:19:12;;;;;;;;;;;11.70;99.90;;;;;;4993960;28;20016;-82
2021/12/14 14:21:38;;;;;;;;;;;11.90;99.90;;;;;;5011903;28;19988;-82
2021/12/14 14:24:04;;;;;;;;;;;11.80;99.90;;;;;;5012157;28;19925;-84
2021/12/14 14:26:37;;;;;;;;;;;11.80;99.90;;;;;;4978694;28;20013;-83
2021/12/14 14:29:22;;;;;;;;;;;11.80;99.90;;;;;;4994630;28;19961;-83
2021/12/14 14:32:01;;;;;;;;;;;12.20;99.90;;;;;;5011288;28;20301;-82
2021/12/14 14:34:28;;;;;;;;;;;11.90;99.90;;;;;;4994117;28;19929;-83
2021/12/14 14:37:14;;;;;;;;;;;11.80;99.90;;;;;;5011708;28;19925;-83
2021/12/14 14:39:51;;;;;;;;;;;11.90;99.90;;;;;;4993983;28;20025;-83
2021/12/14 14:42:16;;;;;;;;;;;11.60;99.90;;;;;;4994122;28;20075;-83
2021/12/14 14:44:43;;;;;;;;;;;12.20;99.90;;;;;;5012134;28;20123;-82
2021/12/14 14:47:12;;;;;;;;;;;11.90;99.90;;;;;;5011469;28;19926;-84
2021/12/14 14:49:37;;;;;;;;;;;11.90;99.90;;;;;;5012030;28;19933;-84
2021/12/14 14:52:13;;;;;;;;;;;13.10;99.90;;;;;;4994383;28;20270;-84
2021/12/14 14:54:44;;;;;;;;;;;12.00;99.90;;;;;;5011955;28;19995;-84
2021/12/14 14:57:09;;;;;;;;;;;12.00;99.90;;;;;;5011918;28;19941;-85
2021/12/14 14:59:44;;;;;;;;;;;11.90;99.90;;;;;;4994266;28;20282;-84
2021/12/14 15:02:10;;;;;;;;;;;12.00;99.90;;;;;;5011686;28;20020;-86
2021/12/14 15:04:55;;;;;;;;;;;12.40;99.90;;;;;;4994891;28;20341;-84
2021/12/14 15:07:20;;;;;;;;;;;12.10;99.90;;;;;;5011565;28;19991;-85
2021/12/14 15:09:46;;;;;;;;;;;12.00;99.90;;;;;;5012323;28;19926;-84
2021/12/14 15:12:18;;;;;;;;;;;12.50;99.90;;;;;;4998478;28;19924;-85
2021/12/14 15:14:43;;;;;;;;;;;12.60;99.90;;;;;;5016306;28;19922;-85
2021/12/14 15:17:17;;;;;;;;;;;13.10;99.90;;;;;;5015671;28;19921;-86